createdAt,value
2022-10-14T00:01:13.528Z,11.68
2022-10-14T00:03:41.020Z,11.60
2022-10-14T00:06:13.202Z,11.64
2022-10-14T00:08:40.764Z,11.77
2022-10-14T00:11:22.043Z,11.96
2022-10-14T00:13:49.503Z,11.94
2022-10-14T00:16:22.145Z,11.84
2022-10-14T00:18:49.677Z,11.70
2022-10-14T00:21:16.859Z,11.73
2022-10-14T00:23:44.509Z,11.84
2022-10-14T00:26:32.876Z,11.81
2022-10-14T00:29:00.539Z,11.79
2022-10-14T00:31:31.621Z,11.64
2022-10-14T00:33:58.899Z,11.67
2022-10-14T00:36:26.346Z,11.79
2022-10-14T00:38:54.226Z,11.91
2022-10-14T00:41:26.379Z,11.74
2022-10-14T00:44:17.025Z,11.54
2022-10-14T00:46:45.879Z,11.58
2022-10-14T00:49:31.739Z,11.68
2022-10-14T00:52:02.747Z,11.51
2022-10-14T00:54:37.639Z,11.51
2022-10-14T00:57:05.387Z,11.65
2022-10-14T00:59:33.024Z,11.68
2022-10-14T01:02:00.313Z,11.63
2022-10-14T01:04:27.694Z,11.64
2022-10-14T01:07:01.340Z,11.73
2022-10-14T01:09:35.999Z,11.68
2022-10-14T01:12:29.202Z,11.70
2022-10-14T01:15:00.208Z,11.61
2022-10-14T01:17:34.349Z,11.56
2022-10-14T01:20:13.737Z,11.48
2022-10-14T01:23:09.414Z,11.64
2022-10-14T01:26:06.757Z,11.71
2022-10-14T01:28:45.761Z,11.58
2022-10-14T01:31:16.956Z,11.26
2022-10-14T01:33:45.079Z,11.16
2022-10-14T01:36:22.015Z,11.12
2022-10-14T01:39:03.053Z,11.05
2022-10-14T01:41:36.096Z,11.00
2022-10-14T01:44:05.826Z,11.05
2022-10-14T01:46:33.074Z,11.13
2022-10-14T01:49:07.431Z,11.07
2022-10-14T01:51:51.237Z,11.07
2022-10-14T01:54:21.064Z,10.92
2022-10-14T01:56:48.376Z,10.67
2022-10-14T01:59:16.507Z,10.62
2022-10-14T02:01:43.877Z,10.79
2022-10-14T02:04:16.460Z,10.80
2022-10-14T02:07:12.696Z,10.58
2022-10-14T02:10:01.516Z,10.55
2022-10-14T02:12:31.832Z,10.49
2022-10-14T02:15:28.721Z,10.59
2022-10-14T02:17:59.000Z,10.78
2022-10-14T02:20:31.927Z,10.76
2022-10-14T02:23:12.118Z,10.45
2022-10-14T02:25:40.424Z,10.34
2022-10-14T02:28:09.274Z,10.33
2022-10-14T02:30:39.475Z,10.38
2022-10-14T02:33:07.605Z,10.25
2022-10-14T02:35:34.925Z,10.30
2022-10-14T02:38:05.074Z,10.33
2022-10-14T02:40:40.610Z,10.28
2022-10-14T02:43:10.733Z,10.42
2022-10-14T02:45:38.977Z,10.42
2022-10-14T02:48:06.534Z,10.36
2022-10-14T02:50:33.901Z,10.44
2022-10-14T02:53:01.101Z,10.13
2022-10-14T02:55:28.351Z,10.01
2022-10-14T02:57:55.584Z,9.94
2022-10-14T03:00:22.917Z,9.94
2022-10-14T03:02:50.187Z,9.94
2022-10-14T03:05:19.651Z,10.07
2022-10-14T03:07:47.161Z,10.13
2022-10-14T03:10:17.909Z,10.34
2022-10-14T03:12:45.293Z,10.34
2022-10-14T03:15:21.313Z,10.40
2022-10-14T03:17:50.090Z,10.38
2022-10-14T03:20:21.403Z,10.48
2022-10-14T03:22:52.603Z,10.48
2022-10-14T03:25:20.009Z,10.44
2022-10-14T03:27:56.586Z,10.45
2022-10-14T03:30:35.462Z,10.45
2022-10-14T03:33:13.228Z,10.54
2022-10-14T03:35:47.437Z,10.54
2022-10-14T03:38:18.839Z,10.54
2022-10-14T03:40:47.543Z,10.55
2022-10-14T03:43:15.245Z,10.62
2022-10-14T03:45:54.873Z,10.59
2022-10-14T03:48:24.646Z,10.68
2022-10-14T03:50:56.311Z,10.64
2022-10-14T03:53:24.944Z,10.73
2022-10-14T03:55:52.542Z,10.67
2022-10-14T03:58:20.531Z,10.65
2022-10-14T04:00:57.214Z,10.48
2022-10-14T04:03:53.430Z,10.62
2022-10-14T04:06:21.006Z,10.73
2022-10-14T04:08:50.950Z,10.47
2022-10-14T04:11:27.450Z,10.36
2022-10-14T04:14:00.538Z,10.40
2022-10-14T04:16:30.007Z,10.24
2022-10-14T04:19:04.261Z,10.11
2022-10-14T04:21:32.024Z,10.01
2022-10-14T04:23:59.305Z,9.86
2022-10-14T04:26:52.676Z,9.82
2022-10-14T04:29:38.363Z,9.91
2022-10-14T04:32:12.892Z,9.96
2022-10-14T04:34:40.317Z,9.83
2022-10-14T04:37:09.055Z,9.73
2022-10-14T04:40:02.480Z,9.82
2022-10-14T04:42:31.640Z,9.72
2022-10-14T04:45:02.754Z,9.70
2022-10-14T04:47:48.345Z,9.69
2022-10-14T04:50:18.969Z,10.01
2022-10-14T04:53:09.439Z,9.86
2022-10-14T04:55:46.959Z,9.79
2022-10-14T04:58:14.357Z,9.66
2022-10-14T05:00:43.776Z,9.55
2022-10-14T05:03:24.794Z,9.53
2022-10-14T05:05:52.702Z,9.52
2022-10-14T05:08:20.618Z,9.59
2022-10-14T05:10:54.097Z,9.72
2022-10-14T05:13:35.864Z,9.85
2022-10-14T05:16:08.067Z,9.70
2022-10-14T05:18:37.188Z,9.65
2022-10-14T05:21:19.256Z,9.75
2022-10-14T05:24:14.509Z,9.78
2022-10-14T05:26:47.895Z,9.80
2022-10-14T05:29:17.177Z,9.79
2022-10-14T05:31:44.952Z,9.80
2022-10-14T05:34:26.829Z,9.93
2022-10-14T05:36:56.594Z,9.87
2022-10-14T05:39:24.327Z,9.96
2022-10-14T05:41:53.192Z,10.10
2022-10-14T05:44:25.245Z,10.00
2022-10-14T05:46:54.216Z,9.78
2022-10-14T05:49:22.150Z,9.97
2022-10-14T05:51:49.536Z,10.30
2022-10-14T05:54:22.364Z,10.30
2022-10-14T05:56:52.841Z,10.44
2022-10-14T05:59:20.863Z,10.49
2022-10-14T06:01:48.558Z,10.51
2022-10-14T06:04:20.136Z,10.85
2022-10-14T06:06:52.355Z,10.83
2022-10-14T06:09:30.591Z,10.95
2022-10-14T06:11:58.637Z,11.22
2022-10-14T06:14:26.313Z,11.40
2022-10-14T06:17:39.915Z,11.61
2022-10-14T06:20:11.396Z,11.75
2022-10-14T06:22:39.548Z,11.74
2022-10-14T06:25:08.917Z,11.96
2022-10-14T06:27:36.587Z,11.92
2022-10-14T06:30:04.793Z,12.16
2022-10-14T06:32:32.869Z,12.18
2022-10-14T06:35:00.939Z,11.88
2022-10-14T06:37:30.040Z,11.78
2022-10-14T06:39:57.894Z,11.82
2022-10-14T06:42:28.086Z,12.04
2022-10-14T06:44:57.109Z,12.14
2022-10-14T06:47:24.979Z,12.12
2022-10-14T06:49:52.320Z,12.15
2022-10-14T06:52:21.826Z,11.98
2022-10-14T06:54:50.149Z,12.32
2022-10-14T06:57:20.564Z,12.28
2022-10-14T06:59:51.320Z,12.42
2022-10-14T07:02:22.348Z,12.22
2022-10-14T07:04:50.060Z,12.19
2022-10-14T07:07:18.858Z,12.22
2022-10-14T07:09:47.346Z,12.11
2022-10-14T07:12:17.837Z,12.11
2022-10-14T07:14:45.832Z,12.25
2022-10-14T07:17:19.981Z,12.36
2022-10-14T07:19:48.352Z,12.42
2022-10-14T07:22:17.830Z,12.67
2022-10-14T07:24:46.332Z,12.63
2022-10-14T07:27:16.641Z,12.76
2022-10-14T07:29:44.206Z,12.63
2022-10-14T07:32:11.596Z,12.49
2022-10-14T07:34:39.048Z,12.70
2022-10-14T07:37:06.408Z,12.67
2022-10-14T07:39:34.085Z,12.80
2022-10-14T07:42:01.822Z,12.94
2022-10-14T07:44:29.666Z,13.04
2022-10-14T07:46:58.860Z,12.85
2022-10-14T07:49:26.512Z,13.05
2022-10-14T07:51:54.461Z,13.31
2022-10-14T07:54:24.175Z,13.51
2022-10-14T07:56:53.543Z,13.34
2022-10-14T07:59:21.290Z,13.32
2022-10-14T08:01:49.853Z,13.49
2022-10-14T08:04:18.019Z,13.45
2022-10-14T08:06:49.024Z,13.41
2022-10-14T08:09:35.017Z,13.53
2022-10-14T08:12:03.584Z,13.59
2022-10-14T08:14:32.982Z,13.70
2022-10-14T08:17:02.802Z,13.52
2022-10-14T08:19:53.838Z,13.53
2022-10-14T08:33:52.251Z,13.70
2022-10-14T08:36:20.735Z,13.82
2022-10-14T08:38:55.942Z,14.16
2022-10-14T08:41:51.473Z,14.42
2022-10-14T08:44:34.042Z,14.82
2022-10-14T08:47:04.763Z,15.27
2022-10-14T08:50:01.656Z,15.14
2022-10-14T08:52:43.398Z,15.51
2022-10-14T08:55:44.036Z,15.57
2022-10-14T08:58:20.698Z,15.54
2022-10-14T09:00:50.800Z,15.68
2022-10-14T09:03:24.183Z,15.69
2022-10-14T09:06:24.947Z,15.85
2022-10-14T09:08:59.492Z,16.02
2022-10-14T09:11:29.564Z,15.85
2022-10-14T09:14:23.194Z,15.95
2022-10-14T09:16:57.351Z,16.08
2022-10-14T09:20:05.462Z,16.09
2022-10-14T09:22:33.162Z,16.05
2022-10-14T09:25:01.445Z,16.16
2022-10-14T09:27:30.284Z,16.12
2022-10-14T09:30:00.202Z,16.33
2022-10-14T09:32:41.110Z,16.37
2022-10-14T09:35:32.584Z,16.50
2022-10-14T09:37:59.959Z,16.42
2022-10-14T09:40:32.097Z,16.34
2022-10-14T09:43:08.668Z,16.45
2022-10-14T09:46:04.027Z,16.67
2022-10-14T09:48:39.682Z,16.68
2022-10-14T09:51:23.877Z,16.73
2022-10-14T09:53:53.636Z,16.92
2022-10-14T09:56:39.014Z,16.95
2022-10-14T09:59:20.732Z,17.18
2022-10-14T10:02:02.138Z,17.00
2022-10-14T10:04:47.853Z,17.16
2022-10-14T10:07:34.925Z,17.35
2022-10-14T10:10:23.357Z,17.38
2022-10-14T10:13:13.412Z,17.31
2022-10-14T10:15:44.678Z,17.59
2022-10-14T10:18:19.735Z,17.62
2022-10-14T10:21:08.823Z,17.73
2022-10-14T10:23:37.078Z,17.93
2022-10-14T10:26:18.825Z,18.07
2022-10-14T10:28:50.270Z,17.94
2022-10-14T10:31:33.743Z,17.91
2022-10-14T10:34:28.570Z,18.17
2022-10-14T10:37:00.902Z,18.41
2022-10-14T10:39:54.006Z,17.89
2022-10-14T10:42:26.195Z,17.39
2022-10-14T10:45:06.746Z,17.90
2022-10-14T10:47:41.251Z,18.00
2022-10-14T10:50:38.167Z,18.18
2022-10-14T10:53:20.918Z,18.07
2022-10-14T10:56:13.690Z,18.13
2022-10-14T10:59:07.475Z,18.04
2022-10-14T11:01:55.214Z,18.01
2022-10-14T11:04:38.405Z,17.79
2022-10-14T11:08:05.882Z,17.59
2022-10-14T11:11:30.791Z,17.87
2022-10-14T11:14:13.575Z,17.84
2022-10-14T11:17:09.095Z,17.87
2022-10-14T11:20:22.855Z,18.00
2022-10-14T11:23:21.643Z,17.93
2022-10-14T11:26:21.411Z,18.03
2022-10-14T11:29:23.473Z,17.94
2022-10-14T11:31:54.968Z,18.03
2022-10-14T11:34:43.187Z,18.21
2022-10-14T11:37:29.175Z,18.59
2022-10-14T11:40:10.651Z,18.52
2022-10-14T11:43:11.101Z,18.79
2022-10-14T11:45:47.278Z,18.99
2022-10-14T11:48:24.069Z,18.92
2022-10-14T11:50:58.811Z,18.85
2022-10-14T11:53:48.521Z,18.51
2022-10-14T11:57:11.144Z,18.28
2022-10-14T12:00:05.535Z,18.14
2022-10-14T12:02:54.410Z,18.07
2022-10-14T12:05:53.339Z,17.97
2022-10-14T12:08:37.483Z,17.93
2022-10-14T12:11:28.456Z,17.98
2022-10-14T12:14:34.892Z,17.97
2022-10-14T12:17:05.674Z,17.83
2022-10-14T12:19:33.044Z,17.82
2022-10-14T12:22:09.524Z,17.93
2022-10-14T12:24:38.279Z,17.89
2022-10-14T12:27:06.696Z,17.97
2022-10-14T12:29:41.612Z,18.11
2022-10-14T12:32:20.374Z,18.24
2022-10-14T12:34:55.159Z,18.14
2022-10-14T12:37:31.634Z,17.93
2022-10-14T12:40:02.466Z,18.31
2022-10-14T12:42:30.937Z,18.53
2022-10-14T12:45:14.386Z,18.88
2022-10-14T12:47:41.831Z,18.72
2022-10-14T12:50:16.642Z,19.10
2022-10-14T12:52:48.416Z,19.00
2022-10-14T12:55:20.554Z,18.93
2022-10-14T12:58:02.431Z,19.09
2022-10-14T13:00:35.646Z,19.51
2022-10-14T13:03:04.174Z,20.30
2022-10-14T13:05:43.047Z,20.53
2022-10-14T13:08:12.133Z,20.41
2022-10-14T13:10:45.183Z,19.65
2022-10-14T13:13:42.344Z,19.43
2022-10-14T13:16:10.794Z,19.41
2022-10-14T13:18:44.226Z,19.31
2022-10-14T13:21:41.514Z,19.27
2022-10-14T13:24:18.040Z,19.27
2022-10-14T13:26:51.633Z,19.20
2022-10-14T13:29:40.341Z,19.23
2022-10-14T13:32:38.713Z,19.11
2022-10-14T13:35:22.064Z,19.06
2022-10-14T13:38:13.177Z,18.90
2022-10-14T13:40:44.797Z,19.14
2022-10-14T13:43:19.181Z,19.10
2022-10-14T13:45:55.488Z,19.00
2022-10-14T13:48:29.599Z,19.17
2022-10-14T13:51:24.687Z,19.06
2022-10-14T13:54:17.791Z,18.38
2022-10-14T13:57:13.801Z,18.76
2022-10-14T14:00:11.620Z,18.88
2022-10-14T14:02:40.870Z,18.96
2022-10-14T14:05:14.205Z,18.90
2022-10-14T14:08:21.707Z,18.89
2022-10-14T14:10:29.217Z,18.90
2022-10-14T14:12:56.871Z,18.99
2022-10-14T14:15:26.725Z,18.98
2022-10-14T14:17:54.624Z,18.86
2022-10-14T14:20:24.022Z,18.73
2022-10-14T14:22:53.943Z,18.72
2022-10-14T14:25:34.024Z,18.55
2022-10-14T14:28:02.998Z,18.65
2022-10-14T14:30:30.396Z,18.79
2022-10-14T14:32:59.763Z,18.88
2022-10-14T14:35:27.602Z,18.85
2022-10-14T14:37:56.440Z,18.79
2022-10-14T14:40:28.835Z,18.79
2022-10-14T14:43:02.028Z,18.73
2022-10-14T14:45:31.199Z,18.56
2022-10-14T14:48:01.718Z,18.75
2022-10-14T14:50:48.880Z,18.51
2022-10-14T14:53:24.057Z,18.42
2022-10-14T14:55:54.495Z,18.42
2022-10-14T14:58:26.680Z,18.31
2022-10-14T15:00:55.188Z,18.38
2022-10-14T15:03:24.529Z,18.48
2022-10-14T15:06:02.039Z,18.40
2022-10-14T15:08:36.329Z,18.51
2022-10-14T15:11:03.924Z,18.40
2022-10-14T15:13:40.436Z,18.21
2022-10-14T15:16:07.991Z,18.23
2022-10-14T15:18:37.736Z,18.11
2022-10-14T15:21:11.740Z,18.07
2022-10-14T15:23:53.402Z,18.00
2022-10-14T15:26:34.824Z,17.86
2022-10-14T15:29:08.351Z,17.89
2022-10-14T15:31:35.999Z,17.80
2022-10-14T15:34:03.356Z,17.76
2022-10-14T15:36:34.479Z,17.69
2022-10-14T15:39:02.662Z,17.70
2022-10-14T15:41:30.124Z,17.65
2022-10-14T15:43:57.445Z,17.57
2022-10-14T15:46:43.393Z,17.57
2022-10-14T15:49:15.445Z,17.47
2022-10-14T15:51:42.745Z,17.46
2022-10-14T15:54:11.403Z,17.39
2022-10-14T15:56:39.534Z,17.43
2022-10-14T15:59:06.811Z,17.34
2022-10-14T16:01:35.806Z,17.19
2022-10-14T16:04:03.960Z,17.29
2022-10-14T16:06:32.697Z,17.29
2022-10-14T16:09:00.124Z,17.19
2022-10-14T16:11:29.545Z,17.03
2022-10-14T16:13:57.177Z,16.94
2022-10-14T16:16:33.052Z,16.92
2022-10-14T16:19:03.590Z,16.94
2022-10-14T16:21:31.183Z,16.85
2022-10-14T16:24:01.246Z,16.92
2022-10-14T16:26:29.641Z,16.95
2022-10-14T16:28:57.278Z,16.95
2022-10-14T16:31:24.719Z,16.97
2022-10-14T16:33:57.016Z,16.89
2022-10-14T16:36:26.211Z,16.67
2022-10-14T16:38:56.879Z,16.43
2022-10-14T16:41:27.529Z,16.34
2022-10-14T16:43:54.919Z,16.22
2022-10-14T16:46:42.132Z,16.09
2022-10-14T16:49:09.444Z,15.92
2022-10-14T16:51:36.808Z,15.89
2022-10-14T16:54:04.282Z,15.94
2022-10-14T16:56:50.104Z,15.87
2022-10-14T16:59:17.458Z,16.04
2022-10-14T17:01:45.018Z,15.97
2022-10-14T17:04:12.720Z,15.68
2022-10-14T17:06:40.310Z,15.71
2022-10-14T17:09:09.105Z,15.60
2022-10-14T17:11:36.403Z,15.68
2022-10-14T17:14:03.966Z,15.47
2022-10-14T17:16:31.379Z,15.31
2022-10-14T17:18:59.162Z,15.33
2022-10-14T17:21:29.611Z,15.22
2022-10-14T17:24:03.680Z,15.13
2022-10-14T17:26:31.832Z,15.11
2022-10-14T17:28:59.175Z,15.20
2022-10-14T17:31:26.789Z,15.37
2022-10-14T17:33:54.097Z,15.46
2022-10-14T17:36:23.057Z,15.34
2022-10-14T17:38:51.085Z,15.23
2022-10-14T17:41:18.838Z,15.27
2022-10-14T17:43:50.101Z,15.29
2022-10-14T17:46:20.846Z,15.14
2022-10-14T17:48:52.993Z,14.99
2022-10-14T17:51:23.024Z,15.02
2022-10-14T17:53:57.080Z,14.98
2022-10-14T17:56:24.581Z,14.83
2022-10-14T17:58:55.786Z,14.75
2022-10-14T18:01:36.908Z,14.69
2022-10-14T18:04:05.123Z,14.61
2022-10-14T18:06:33.666Z,14.38
2022-10-14T18:09:02.279Z,14.25
2022-10-14T18:11:49.707Z,14.31
2022-10-14T18:14:18.397Z,14.38
2022-10-14T18:16:47.493Z,14.32
2022-10-14T18:19:16.788Z,14.28
2022-10-14T18:21:44.534Z,14.38
2022-10-14T18:24:12.236Z,14.44
2022-10-14T18:26:40.830Z,14.55
2022-10-14T18:29:08.705Z,14.41
2022-10-14T18:31:36.088Z,14.25
2022-10-14T18:34:03.818Z,14.32
2022-10-14T18:36:33.154Z,14.42
2022-10-14T18:39:02.159Z,14.46
2022-10-14T18:41:29.911Z,14.44
2022-10-14T18:44:00.090Z,14.49
2022-10-14T18:46:29.668Z,14.57
2022-10-14T18:48:57.877Z,14.55
2022-10-14T18:51:29.882Z,14.41
2022-10-14T18:53:59.193Z,14.40
2022-10-14T18:56:31.788Z,14.20
2022-10-14T18:59:01.407Z,14.06
2022-10-14T19:01:29.244Z,14.06
2022-10-14T19:03:56.931Z,14.14
2022-10-14T19:06:24.563Z,14.06
2022-10-14T19:08:52.175Z,13.94
2022-10-14T19:11:21.261Z,13.93
2022-10-14T19:13:50.215Z,13.99
2022-10-14T19:16:19.249Z,14.09
2022-10-14T19:18:46.731Z,14.17
2022-10-14T19:21:15.214Z,14.14
2022-10-14T19:23:43.496Z,14.11
2022-10-14T19:28:50.042Z,13.79
2022-10-14T19:31:19.548Z,13.70
2022-10-14T19:33:46.953Z,13.80
2022-10-14T19:36:15.857Z,13.83
2022-10-14T19:38:52.304Z,13.76
2022-10-14T19:41:19.565Z,13.73
2022-10-14T19:43:46.872Z,13.76
2022-10-14T19:46:14.448Z,13.79
2022-10-14T19:48:41.684Z,13.73
2022-10-14T19:51:11.865Z,13.66
2022-10-14T19:53:39.311Z,13.70
2022-10-14T19:56:08.555Z,13.70
2022-10-14T19:58:38.558Z,13.58
2022-10-14T20:01:08.452Z,13.53
2022-10-14T20:03:35.853Z,13.51
2022-10-14T20:06:03.576Z,13.58
2022-10-14T20:08:31.017Z,13.59
2022-10-14T20:11:01.995Z,13.65
2022-10-14T20:13:29.404Z,13.67
2022-10-14T20:15:58.348Z,13.48
2022-10-14T20:18:25.707Z,13.45
2022-10-14T20:20:53.043Z,13.48
2022-10-14T20:23:20.396Z,13.39
2022-10-14T20:25:47.890Z,13.46
2022-10-14T20:28:19.606Z,13.18
2022-10-14T20:30:47.376Z,13.12
2022-10-14T20:33:14.636Z,13.08
2022-10-14T20:35:41.992Z,13.10
2022-10-14T20:38:09.233Z,13.15
2022-10-14T20:40:36.601Z,13.18
2022-10-14T20:43:04.036Z,13.14
2022-10-14T20:45:31.855Z,13.24
2022-10-14T20:47:59.084Z,13.38
2022-10-14T20:50:26.429Z,13.46
2022-10-14T20:52:53.639Z,13.49
2022-10-14T20:55:20.934Z,13.22
2022-10-14T20:57:48.326Z,13.22
2022-10-14T21:00:15.611Z,13.21
2022-10-14T21:05:11.076Z,13.29
2022-10-14T21:07:38.281Z,13.19
2022-10-14T21:10:06.914Z,13.00
2022-10-14T21:12:34.284Z,12.88
2022-10-14T21:15:01.591Z,12.94
2022-10-14T21:17:29.989Z,13.14
2022-10-14T21:19:57.318Z,13.18
2022-10-14T21:22:25.174Z,13.35
2022-10-14T21:24:52.636Z,13.32
2022-10-14T21:27:19.932Z,13.32
2022-10-14T21:29:49.442Z,13.36
2022-10-14T21:32:16.714Z,13.41
2022-10-14T21:34:44.164Z,13.31
2022-10-14T21:37:12.221Z,13.07
2022-10-14T21:39:39.500Z,12.88
2022-10-14T21:42:06.810Z,12.93
2022-10-14T21:44:34.132Z,13.03
2022-10-14T21:47:01.426Z,13.22
2022-10-14T21:49:28.679Z,13.31
2022-10-14T21:51:55.915Z,13.18
2022-10-14T21:54:24.854Z,13.21
2022-10-14T21:56:52.188Z,13.12
2022-10-14T21:59:19.519Z,13.01
2022-10-14T22:01:46.987Z,13.04
2022-10-14T22:04:14.268Z,13.12
2022-10-14T22:06:41.490Z,13.24
2022-10-14T22:09:08.877Z,13.21
2022-10-14T22:11:37.905Z,13.22
2022-10-14T22:14:06.338Z,13.19
2022-10-14T22:16:33.737Z,13.19
2022-10-14T22:19:01.663Z,13.10
2022-10-14T22:21:30.040Z,13.08
2022-10-14T22:23:58.503Z,13.03
2022-10-14T22:26:26.544Z,12.83
2022-10-14T22:29:20.736Z,12.81
2022-10-14T22:31:48.003Z,12.72
2022-10-14T22:34:16.509Z,12.61
2022-10-14T22:36:44.009Z,12.72
2022-10-14T22:39:13.437Z,12.93
2022-10-14T22:41:40.711Z,12.93
2022-10-14T22:44:09.285Z,12.95
2022-10-14T22:46:37.184Z,12.67
2022-10-14T22:49:04.636Z,12.68
2022-10-14T22:51:36.792Z,12.56
2022-10-14T22:54:04.245Z,12.46
2022-10-14T22:56:31.641Z,12.50
2022-10-14T22:59:01.311Z,12.59
2022-10-14T23:01:28.919Z,12.42
2022-10-14T23:03:57.098Z,12.49
2022-10-14T23:06:24.384Z,12.42
2022-10-14T23:08:51.689Z,12.26
2022-10-14T23:11:20.245Z,12.16
2022-10-14T23:13:47.663Z,12.36
2022-10-14T23:16:16.449Z,12.40
2022-10-14T23:18:43.854Z,12.40
2022-10-14T23:21:15.226Z,12.46
2022-10-14T23:23:42.849Z,12.39
2022-10-14T23:26:11.118Z,12.32
2022-10-14T23:28:38.554Z,12.19
2022-10-14T23:31:12.950Z,11.98
2022-10-14T23:33:40.351Z,11.99
2022-10-14T23:36:08.932Z,11.74
2022-10-14T23:38:36.493Z,11.57
2022-10-14T23:41:04.017Z,11.65
2022-10-14T23:43:31.505Z,11.78
2022-10-14T23:45:58.743Z,11.75
2022-10-14T23:48:26.215Z,11.82
2022-10-14T23:50:53.538Z,11.85
2022-10-14T23:53:20.906Z,11.92
2022-10-14T23:55:48.168Z,11.94
2022-10-14T23:58:15.399Z,11.92
